sensor_id;sensor_type;location;lat;lon;timestamp;P1;durP1;ratioP1;P2;durP2;ratioP2
39400;SDS011;54391;50.000;7.360;2023-12-14T00:01:47;5.30;;;2.70;;
39400;SDS011;54391;50.000;7.360;2023-12-14T00:04:15;7.68;;;3.25;;
39400;SDS011;54391;50.000;7.360;2023-12-14T00:06:42;6.88;;;2.80;;
39400;SDS011;54391;50.000;7.360;2023-12-14T00:09:09;5.65;;;2.83;;
39400;SDS011;54391;50.000;7.360;2023-12-14T00:11:37;9.52;;;4.90;;
39400;SDS011;54391;50.000;7.360;2023-12-14T00:14:05;7.68;;;2.83;;
39400;SDS011;54391;50.000;7.360;2023-12-14T00:16:34;10.20;;;4.78;;
39400;SDS011;54391;50.000;7.360;2023-12-14T00:19:01;6.30;;;3.10;;
39400;SDS011;54391;50.000;7.360;2023-12-14T00:21:29;5.70;;;3.03;;
39400;SDS011;54391;50.000;7.360;2023-12-14T00:23:56;8.00;;;3.20;;
39400;SDS011;54391;50.000;7.360;2023-12-14T00:26:23;5.82;;;3.08;;
39400;SDS011;54391;50.000;7.360;2023-12-14T00:28:51;5.82;;;3.20;;
39400;SDS011;54391;50.000;7.360;2023-12-14T00:31:18;9.07;;;4.00;;
39400;SDS011;54391;50.000;7.360;2023-12-14T00:33:46;11.18;;;5.78;;
39400;SDS011;54391;50.000;7.360;2023-12-14T00:36:17;14.07;;;7.68;;
39400;SDS011;54391;50.000;7.360;2023-12-14T00:38:45;7.22;;;3.42;;
39400;SDS011;54391;50.000;7.360;2023-12-14T00:41:12;9.25;;;4.25;;
39400;SDS011;54391;50.000;7.360;2023-12-14T00:43:40;8.63;;;3.60;;
39400;SDS011;54391;50.000;7.360;2023-12-14T00:46:07;9.80;;;5.45;;
39400;SDS011;54391;50.000;7.360;2023-12-14T00:48:36;11.45;;;6.13;;
39400;SDS011;54391;50.000;7.360;2023-12-14T00:51:05;9.63;;;4.43;;
39400;SDS011;54391;50.000;7.360;2023-12-14T00:53:33;12.38;;;6.95;;
39400;SDS011;54391;50.000;7.360;2023-12-14T00:56:00;10.25;;;4.78;;
39400;SDS011;54391;50.000;7.360;2023-12-14T00:58:28;8.40;;;3.88;;
39400;SDS011;54391;50.000;7.360;2023-12-14T01:00:55;12.18;;;6.90;;
39400;SDS011;54391;50.000;7.360;2023-12-14T01:03:23;8.05;;;3.55;;
39400;SDS011;54391;50.000;7.360;2023-12-14T01:05:50;13.43;;;6.43;;
39400;SDS011;54391;50.000;7.360;2023-12-14T01:11:48;9.13;;;4.80;;
39400;SDS011;54391;50.000;7.360;2023-12-14T01:14:15;8.75;;;4.05;;
39400;SDS011;54391;50.000;7.360;2023-12-14T01:16:43;11.70;;;4.88;;
39400;SDS011;54391;50.000;7.360;2023-12-14T01:19:10;14.32;;;7.00;;
39400;SDS011;54391;50.000;7.360;2023-12-14T01:21:38;8.85;;;4.85;;
39400;SDS011;54391;50.000;7.360;2023-12-14T01:24:05;12.65;;;7.40;;
39400;SDS011;54391;50.000;7.360;2023-12-14T01:26:33;11.25;;;4.47;;
39400;SDS011;54391;50.000;7.360;2023-12-14T01:29:01;9.57;;;4.00;;
39400;SDS011;54391;50.000;7.360;2023-12-14T01:31:29;7.68;;;4.13;;
39400;SDS011;54391;50.000;7.360;2023-12-14T01:33:56;8.10;;;3.85;;
39400;SDS011;54391;50.000;7.360;2023-12-14T01:36:25;8.57;;;3.67;;
39400;SDS011;54391;50.000;7.360;2023-12-14T01:38:52;8.32;;;4.35;;
39400;SDS011;54391;50.000;7.360;2023-12-14T01:41:20;11.55;;;6.57;;
39400;SDS011;54391;50.000;7.360;2023-12-14T01:43:47;7.65;;;4.00;;
39400;SDS011;54391;50.000;7.360;2023-12-14T01:46:16;10.35;;;6.57;;
39400;SDS011;54391;50.000;7.360;2023-12-14T01:48:44;7.65;;;3.60;;
39400;SDS011;54391;50.000;7.360;2023-12-14T01:51:11;7.50;;;3.90;;
39400;SDS011;54391;50.000;7.360;2023-12-14T01:53:39;10.85;;;6.50;;
39400;SDS011;54391;50.000;7.360;2023-12-14T01:56:07;6.32;;;3.50;;
39400;SDS011;54391;50.000;7.360;2023-12-14T01:58:34;7.57;;;4.25;;
39400;SDS011;54391;50.000;7.360;2023-12-14T02:01:03;11.82;;;7.32;;
39400;SDS011;54391;50.000;7.360;2023-12-14T02:03:34;12.45;;;7.10;;
39400;SDS011;54391;50.000;7.360;2023-12-14T02:06:02;8.40;;;4.28;;
39400;SDS011;54391;50.000;7.360;2023-12-14T02:08:29;9.88;;;6.00;;
39400;SDS011;54391;50.000;7.360;2023-12-14T02:10:57;8.63;;;5.20;;
39400;SDS011;54391;50.000;7.360;2023-12-14T02:13:24;7.30;;;4.22;;
39400;SDS011;54391;50.000;7.360;2023-12-14T02:15:52;8.27;;;3.80;;
39400;SDS011;54391;50.000;7.360;2023-12-14T02:18:20;7.22;;;3.92;;
39400;SDS011;54391;50.000;7.360;2023-12-14T02:20:49;6.65;;;3.75;;
39400;SDS011;54391;50.000;7.360;2023-12-14T02:23:17;7.25;;;4.03;;
39400;SDS011;54391;50.000;7.360;2023-12-14T02:25:45;10.57;;;6.43;;
39400;SDS011;54391;50.000;7.360;2023-12-14T02:28:12;8.73;;;3.83;;
39400;SDS011;54391;50.000;7.360;2023-12-14T02:30:40;8.32;;;4.22;;
39400;SDS011;54391;50.000;7.360;2023-12-14T02:33:08;6.45;;;3.92;;
39400;SDS011;54391;50.000;7.360;2023-12-14T02:35:37;7.38;;;3.72;;
39400;SDS011;54391;50.000;7.360;2023-12-14T02:38:04;7.60;;;4.22;;
39400;SDS011;54391;50.000;7.360;2023-12-14T02:40:33;7.85;;;3.70;;
39400;SDS011;54391;50.000;7.360;2023-12-14T02:43:00;12.05;;;6.38;;
39400;SDS011;54391;50.000;7.360;2023-12-14T02:45:28;6.97;;;3.95;;
39400;SDS011;54391;50.000;7.360;2023-12-14T02:47:55;6.40;;;3.28;;
39400;SDS011;54391;50.000;7.360;2023-12-14T02:50:22;7.07;;;3.97;;
39400;SDS011;54391;50.000;7.360;2023-12-14T02:52:50;8.18;;;3.75;;
39400;SDS011;54391;50.000;7.360;2023-12-14T02:55:17;6.30;;;3.40;;
39400;SDS011;54391;50.000;7.360;2023-12-14T02:57:46;7.50;;;3.50;;
39400;SDS011;54391;50.000;7.360;2023-12-14T03:00:14;6.32;;;3.28;;
39400;SDS011;54391;50.000;7.360;2023-12-14T03:02:41;5.88;;;3.30;;
39400;SDS011;54391;50.000;7.360;2023-12-14T03:05:09;6.65;;;3.47;;
39400;SDS011;54391;50.000;7.360;2023-12-14T03:07:36;7.47;;;2.67;;
39400;SDS011;54391;50.000;7.360;2023-12-14T03:10:04;7.05;;;3.58;;
39400;SDS011;54391;50.000;7.360;2023-12-14T03:12:32;7.30;;;3.55;;
39400;SDS011;54391;50.000;7.360;2023-12-14T03:15:01;10.50;;;6.85;;
39400;SDS011;54391;50.000;7.360;2023-12-14T03:17:28;8.43;;;4.88;;
39400;SDS011;54391;50.000;7.360;2023-12-14T03:19:55;6.50;;;3.30;;
39400;SDS011;54391;50.000;7.360;2023-12-14T03:22:23;10.77;;;5.15;;
39400;SDS011;54391;50.000;7.360;2023-12-14T03:24:50;6.13;;;3.60;;
39400;SDS011;54391;50.000;7.360;2023-12-14T03:27:18;5.82;;;2.90;;
39400;SDS011;54391;50.000;7.360;2023-12-14T03:29:47;14.60;;;5.82;;
39400;SDS011;54391;50.000;7.360;2023-12-14T03:32:16;98.72;;;15.10;;
39400;SDS011;54391;50.000;7.360;2023-12-14T03:34:44;92.95;;;16.13;;
39400;SDS011;54391;50.000;7.360;2023-12-14T03:37:11;64.13;;;11.30;;
39400;SDS011;54391;50.000;7.360;2023-12-14T03:39:39;66.20;;;11.75;;
39400;SDS011;54391;50.000;7.360;2023-12-14T03:42:06;80.72;;;13.75;;
39400;SDS011;54391;50.000;7.360;2023-12-14T03:44:33;29.05;;;8.10;;
39400;SDS011;54391;50.000;7.360;2023-12-14T03:47:01;71.97;;;12.68;;
39400;SDS011;54391;50.000;7.360;2023-12-14T03:49:30;19.15;;;7.55;;
39400;SDS011;54391;50.000;7.360;2023-12-14T03:51:57;8.10;;;3.40;;
39400;SDS011;54391;50.000;7.360;2023-12-14T03:54:25;7.22;;;3.78;;
39400;SDS011;54391;50.000;7.360;2023-12-14T03:56:52;7.25;;;3.28;;
39400;SDS011;54391;50.000;7.360;2023-12-14T03:59:19;5.78;;;2.83;;
39400;SDS011;54391;50.000;7.360;2023-12-14T04:01:47;6.78;;;3.78;;
39400;SDS011;54391;50.000;7.360;2023-12-14T04:13:43;8.20;;;3.58;;
39400;SDS011;54391;50.000;7.360;2023-12-14T04:19:39;16.85;;;10.57;;
39400;SDS011;54391;50.000;7.360;2023-12-14T04:25:36;12.77;;;7.45;;
39400;SDS011;54391;50.000;7.360;2023-12-14T04:28:04;8.90;;;4.30;;
39400;SDS011;54391;50.000;7.360;2023-12-14T04:30:33;7.03;;;3.85;;
39400;SDS011;54391;50.000;7.360;2023-12-14T04:33:00;6.72;;;3.30;;
39400;SDS011;54391;50.000;7.360;2023-12-14T04:35:27;9.65;;;4.70;;
39400;SDS011;54391;50.000;7.360;2023-12-14T04:37:56;7.88;;;4.00;;
39400;SDS011;54391;50.000;7.360;2023-12-14T04:40:24;7.18;;;3.50;;
39400;SDS011;54391;50.000;7.360;2023-12-14T04:42:52;7.03;;;3.47;;
39400;SDS011;54391;50.000;7.360;2023-12-14T04:45:19;7.65;;;4.05;;
39400;SDS011;54391;50.000;7.360;2023-12-14T04:47:48;19.50;;;8.40;;
39400;SDS011;54391;50.000;7.360;2023-12-14T04:50:16;11.68;;;7.03;;
39400;SDS011;54391;50.000;7.360;2023-12-14T04:52:43;7.15;;;3.38;;
39400;SDS011;54391;50.000;7.360;2023-12-14T04:55:11;5.95;;;3.10;;
39400;SDS011;54391;50.000;7.360;2023-12-14T04:57:38;5.43;;;2.95;;
39400;SDS011;54391;50.000;7.360;2023-12-14T05:00:06;5.57;;;2.70;;
39400;SDS011;54391;50.000;7.360;2023-12-14T05:02:34;6.50;;;3.65;;
39400;SDS011;54391;50.000;7.360;2023-12-14T05:05:03;6.35;;;3.60;;
39400;SDS011;54391;50.000;7.360;2023-12-14T05:07:30;6.90;;;3.50;;
39400;SDS011;54391;50.000;7.360;2023-12-14T05:09:58;6.20;;;3.15;;
39400;SDS011;54391;50.000;7.360;2023-12-14T05:12:25;5.68;;;3.20;;
39400;SDS011;54391;50.000;7.360;2023-12-14T05:14:54;5.75;;;3.33;;
39400;SDS011;54391;50.000;7.360;2023-12-14T05:17:21;7.35;;;3.30;;
39400;SDS011;54391;50.000;7.360;2023-12-14T05:19:49;5.50;;;3.33;;
39400;SDS011;54391;50.000;7.360;2023-12-14T05:22:17;6.43;;;3.30;;
39400;SDS011;54391;50.000;7.360;2023-12-14T05:24:46;5.90;;;3.00;;
39400;SDS011;54391;50.000;7.360;2023-12-14T05:27:13;6.10;;;3.13;;
39400;SDS011;54391;50.000;7.360;2023-12-14T05:29:41;4.55;;;2.92;;
39400;SDS011;54391;50.000;7.360;2023-12-14T05:32:08;5.95;;;3.35;;
39400;SDS011;54391;50.000;7.360;2023-12-14T05:34:36;6.55;;;3.38;;
39400;SDS011;54391;50.000;7.360;2023-12-14T05:37:03;5.53;;;3.15;;
39400;SDS011;54391;50.000;7.360;2023-12-14T05:39:32;5.10;;;3.13;;
39400;SDS011;54391;50.000;7.360;2023-12-14T05:41:59;7.57;;;3.67;;
39400;SDS011;54391;50.000;7.360;2023-12-14T05:44:27;8.15;;;4.93;;
39400;SDS011;54391;50.000;7.360;2023-12-14T05:46:54;6.55;;;3.63;;
39400;SDS011;54391;50.000;7.360;2023-12-14T05:49:22;9.07;;;4.60;;
39400;SDS011;54391;50.000;7.360;2023-12-14T05:51:49;8.13;;;3.92;;
39400;SDS011;54391;50.000;7.360;2023-12-14T05:54:17;8.05;;;3.97;;
39400;SDS011;54391;50.000;7.360;2023-12-14T05:56:47;13.07;;;5.82;;
39400;SDS011;54391;50.000;7.360;2023-12-14T05:59:14;24.02;;;8.70;;
39400;SDS011;54391;50.000;7.360;2023-12-14T06:01:42;8.45;;;4.53;;
39400;SDS011;54391;50.000;7.360;2023-12-14T06:04:10;47.00;;;11.65;;
39400;SDS011;54391;50.000;7.360;2023-12-14T06:06:38;21.98;;;7.50;;
39400;SDS011;54391;50.000;7.360;2023-12-14T06:09:05;42.72;;;10.32;;
39400;SDS011;54391;50.000;7.360;2023-12-14T06:11:33;25.98;;;7.63;;
39400;SDS011;54391;50.000;7.360;2023-12-14T06:14:03;29.20;;;9.35;;
39400;SDS011;54391;50.000;7.360;2023-12-14T06:16:30;10.80;;;5.93;;
39400;SDS011;54391;50.000;7.360;2023-12-14T06:18:58;6.40;;;4.05;;
39400;SDS011;54391;50.000;7.360;2023-12-14T06:21:25;5.60;;;3.47;;
39400;SDS011;54391;50.000;7.360;2023-12-14T06:23:54;11.15;;;7.20;;
39400;SDS011;54391;50.000;7.360;2023-12-14T06:26:21;6.15;;;4.18;;
39400;SDS011;54391;50.000;7.360;2023-12-14T06:28:49;6.40;;;3.75;;
39400;SDS011;54391;50.000;7.360;2023-12-14T06:31:18;6.65;;;3.83;;
39400;SDS011;54391;50.000;7.360;2023-12-14T06:33:47;7.15;;;4.18;;
39400;SDS011;54391;50.000;7.360;2023-12-14T06:36:15;5.97;;;3.60;;
39400;SDS011;54391;50.000;7.360;2023-12-14T06:38:44;6.07;;;3.65;;
39400;SDS011;54391;50.000;7.360;2023-12-14T06:41:18;6.85;;;3.42;;
39400;SDS011;54391;50.000;7.360;2023-12-14T06:43:45;5.55;;;3.58;;
39400;SDS011;54391;50.000;7.360;2023-12-14T06:46:13;5.90;;;3.28;;
39400;SDS011;54391;50.000;7.360;2023-12-14T06:48:42;6.13;;;3.45;;
39400;SDS011;54391;50.000;7.360;2023-12-14T06:51:09;6.68;;;3.30;;
39400;SDS011;54391;50.000;7.360;2023-12-14T06:53:38;6.38;;;3.97;;
39400;SDS011;54391;50.000;7.360;2023-12-14T06:56:07;6.63;;;3.88;;
39400;SDS011;54391;50.000;7.360;2023-12-14T06:58:35;6.43;;;3.72;;
39400;SDS011;54391;50.000;7.360;2023-12-14T07:01:03;6.45;;;3.95;;
39400;SDS011;54391;50.000;7.360;2023-12-14T07:03:31;6.55;;;3.58;;
39400;SDS011;54391;50.000;7.360;2023-12-14T07:06:00;6.13;;;3.78;;
39400;SDS011;54391;50.000;7.360;2023-12-14T07:08:27;6.40;;;4.03;;
39400;SDS011;54391;50.000;7.360;2023-12-14T07:10:55;6.18;;;3.45;;
39400;SDS011;54391;50.000;7.360;2023-12-14T07:13:22;5.85;;;4.00;;
39400;SDS011;54391;50.000;7.360;2023-12-14T07:15:49;10.07;;;4.35;;
39400;SDS011;54391;50.000;7.360;2023-12-14T07:18:17;6.45;;;3.85;;
39400;SDS011;54391;50.000;7.360;2023-12-14T07:20:45;7.03;;;4.38;;
39400;SDS011;54391;50.000;7.360;2023-12-14T07:23:13;6.95;;;4.05;;
39400;SDS011;54391;50.000;7.360;2023-12-14T07:25:41;10.63;;;5.65;;
39400;SDS011;54391;50.000;7.360;2023-12-14T07:28:08;15.38;;;7.30;;
39400;SDS011;54391;50.000;7.360;2023-12-14T07:30:36;7.43;;;3.90;;
39400;SDS011;54391;50.000;7.360;2023-12-14T07:33:04;6.72;;;3.80;;
39400;SDS011;54391;50.000;7.360;2023-12-14T07:35:31;7.72;;;4.15;;
39400;SDS011;54391;50.000;7.360;2023-12-14T07:37:59;7.50;;;4.70;;
39400;SDS011;54391;50.000;7.360;2023-12-14T07:40:27;9.93;;;5.75;;
39400;SDS011;54391;50.000;7.360;2023-12-14T07:42:55;8.77;;;5.07;;
39400;SDS011;54391;50.000;7.360;2023-12-14T07:45:22;8.60;;;4.70;;
39400;SDS011;54391;50.000;7.360;2023-12-14T07:47:50;7.15;;;3.65;;
39400;SDS011;54391;50.000;7.360;2023-12-14T07:50:17;7.55;;;3.90;;
39400;SDS011;54391;50.000;7.360;2023-12-14T07:52:45;7.13;;;3.75;;
39400;SDS011;54391;50.000;7.360;2023-12-14T07:55:13;9.20;;;5.88;;
39400;SDS011;54391;50.000;7.360;2023-12-14T07:57:41;5.70;;;3.30;;
39400;SDS011;54391;50.000;7.360;2023-12-14T08:00:10;6.45;;;3.40;;
39400;SDS011;54391;50.000;7.360;2023-12-14T08:02:37;6.43;;;3.40;;
39400;SDS011;54391;50.000;7.360;2023-12-14T08:05:05;5.38;;;3.20;;
39400;SDS011;54391;50.000;7.360;2023-12-14T08:07:33;5.07;;;2.78;;
39400;SDS011;54391;50.000;7.360;2023-12-14T08:10:00;5.18;;;3.15;;
39400;SDS011;54391;50.000;7.360;2023-12-14T08:12:28;9.23;;;3.67;;
39400;SDS011;54391;50.000;7.360;2023-12-14T08:14:57;4.60;;;2.60;;
39400;SDS011;54391;50.000;7.360;2023-12-14T08:17:24;6.47;;;3.10;;
39400;SDS011;54391;50.000;7.360;2023-12-14T08:19:53;4.45;;;2.60;;
39400;SDS011;54391;50.000;7.360;2023-12-14T08:22:20;4.18;;;2.60;;
39400;SDS011;54391;50.000;7.360;2023-12-14T08:24:48;6.78;;;3.10;;
39400;SDS011;54391;50.000;7.360;2023-12-14T08:27:15;5.18;;;2.83;;
39400;SDS011;54391;50.000;7.360;2023-12-14T08:29:43;3.97;;;2.50;;
39400;SDS011;54391;50.000;7.360;2023-12-14T08:32:13;4.60;;;2.45;;
39400;SDS011;54391;50.000;7.360;2023-12-14T08:34:40;5.45;;;3.03;;
39400;SDS011;54391;50.000;7.360;2023-12-14T08:37:08;4.63;;;2.50;;
39400;SDS011;54391;50.000;7.360;2023-12-14T08:39:35;4.28;;;2.70;;
39400;SDS011;54391;50.000;7.360;2023-12-14T08:42:03;4.13;;;2.25;;
39400;SDS011;54391;50.000;7.360;2023-12-14T08:44:30;4.20;;;2.13;;
39400;SDS011;54391;50.000;7.360;2023-12-14T08:46:58;3.35;;;1.98;;
39400;SDS011;54391;50.000;7.360;2023-12-14T08:49:26;4.18;;;2.22;;
39400;SDS011;54391;50.000;7.360;2023-12-14T08:51:54;2.95;;;1.60;;
39400;SDS011;54391;50.000;7.360;2023-12-14T08:54:21;3.70;;;2.00;;
39400;SDS011;54391;50.000;7.360;2023-12-14T08:56:49;4.50;;;2.65;;
39400;SDS011;54391;50.000;7.360;2023-12-14T08:59:17;3.33;;;2.10;;
39400;SDS011;54391;50.000;7.360;2023-12-14T09:01:45;3.08;;;1.65;;
39400;SDS011;54391;50.000;7.360;2023-12-14T09:04:13;2.60;;;1.60;;
39400;SDS011;54391;50.000;7.360;2023-12-14T09:06:41;3.28;;;1.83;;
39400;SDS011;54391;50.000;7.360;2023-12-14T09:09:10;4.10;;;2.20;;
39400;SDS011;54391;50.000;7.360;2023-12-14T09:11:38;4.28;;;1.92;;
39400;SDS011;54391;50.000;7.360;2023-12-14T09:14:05;4.00;;;1.88;;
39400;SDS011;54391;50.000;7.360;2023-12-14T09:16:33;3.85;;;1.70;;
39400;SDS011;54391;50.000;7.360;2023-12-14T09:19:00;4.25;;;2.30;;
39400;SDS011;54391;50.000;7.360;2023-12-14T09:21:28;6.90;;;3.38;;
39400;SDS011;54391;50.000;7.360;2023-12-14T09:23:57;7.55;;;3.80;;
39400;SDS011;54391;50.000;7.360;2023-12-14T09:26:24;5.28;;;3.22;;
39400;SDS011;54391;50.000;7.360;2023-12-14T09:28:52;3.92;;;2.50;;
39400;SDS011;54391;50.000;7.360;2023-12-14T09:31:19;3.35;;;2.20;;
39400;SDS011;54391;50.000;7.360;2023-12-14T09:33:47;4.35;;;2.03;;
39400;SDS011;54391;50.000;7.360;2023-12-14T09:36:14;3.35;;;1.85;;
39400;SDS011;54391;50.000;7.360;2023-12-14T09:38:42;4.03;;;1.80;;
39400;SDS011;54391;50.000;7.360;2023-12-14T09:41:10;3.20;;;1.75;;
39400;SDS011;54391;50.000;7.360;2023-12-14T09:43:39;3.05;;;1.60;;
39400;SDS011;54391;50.000;7.360;2023-12-14T09:46:07;3.70;;;1.83;;
39400;SDS011;54391;50.000;7.360;2023-12-14T09:48:34;2.47;;;1.55;;
39400;SDS011;54391;50.000;7.360;2023-12-14T09:51:02;3.83;;;1.70;;
39400;SDS011;54391;50.000;7.360;2023-12-14T09:53:31;2.95;;;1.77;;
39400;SDS011;54391;50.000;7.360;2023-12-14T09:55:59;3.65;;;2.22;;
39400;SDS011;54391;50.000;7.360;2023-12-14T09:58:28;3.70;;;2.03;;
39400;SDS011;54391;50.000;7.360;2023-12-14T10:00:58;3.38;;;1.75;;
39400;SDS011;54391;50.000;7.360;2023-12-14T10:03:26;4.93;;;1.85;;
39400;SDS011;54391;50.000;7.360;2023-12-14T10:05:55;4.03;;;2.17;;
39400;SDS011;54391;50.000;7.360;2023-12-14T10:08:22;4.57;;;2.00;;
39400;SDS011;54391;50.000;7.360;2023-12-14T10:10:50;4.15;;;2.28;;
39400;SDS011;54391;50.000;7.360;2023-12-14T10:13:18;4.07;;;2.00;;
39400;SDS011;54391;50.000;7.360;2023-12-14T10:15:48;5.55;;;2.80;;
39400;SDS011;54391;50.000;7.360;2023-12-14T10:18:19;6.22;;;2.53;;
39400;SDS011;54391;50.000;7.360;2023-12-14T10:20:48;8.40;;;4.18;;
39400;SDS011;54391;50.000;7.360;2023-12-14T10:23:16;8.05;;;4.18;;
39400;SDS011;54391;50.000;7.360;2023-12-14T10:25:44;8.65;;;4.45;;
39400;SDS011;54391;50.000;7.360;2023-12-14T10:28:11;10.13;;;4.70;;
39400;SDS011;54391;50.000;7.360;2023-12-14T10:30:39;6.30;;;3.20;;
39400;SDS011;54391;50.000;7.360;2023-12-14T10:33:08;4.68;;;2.17;;
39400;SDS011;54391;50.000;7.360;2023-12-14T10:35:36;6.30;;;3.20;;
39400;SDS011;54391;50.000;7.360;2023-12-14T10:38:04;5.43;;;3.10;;
39400;SDS011;54391;50.000;7.360;2023-12-14T10:40:32;8.43;;;3.30;;
39400;SDS011;54391;50.000;7.360;2023-12-14T10:43:00;6.80;;;3.42;;
39400;SDS011;54391;50.000;7.360;2023-12-14T10:45:29;5.93;;;2.30;;
39400;SDS011;54391;50.000;7.360;2023-12-14T10:47:56;6.20;;;2.88;;
39400;SDS011;54391;50.000;7.360;2023-12-14T10:50:26;6.72;;;3.55;;
39400;SDS011;54391;50.000;7.360;2023-12-14T10:52:55;8.25;;;4.05;;
39400;SDS011;54391;50.000;7.360;2023-12-14T10:55:26;6.53;;;2.92;;
39400;SDS011;54391;50.000;7.360;2023-12-14T10:57:56;5.38;;;2.45;;
39400;SDS011;54391;50.000;7.360;2023-12-14T11:00:24;4.20;;;2.28;;
39400;SDS011;54391;50.000;7.360;2023-12-14T11:02:51;5.70;;;2.20;;
39400;SDS011;54391;50.000;7.360;2023-12-14T11:08:50;5.10;;;2.70;;
39400;SDS011;54391;50.000;7.360;2023-12-14T11:11:18;4.75;;;2.35;;
39400;SDS011;54391;50.000;7.360;2023-12-14T11:17:15;5.15;;;2.67;;
39400;SDS011;54391;50.000;7.360;2023-12-14T11:19:44;5.15;;;2.42;;
39400;SDS011;54391;50.000;7.360;2023-12-14T11:25:00;3.92;;;2.08;;
39400;SDS011;54391;50.000;7.360;2023-12-14T11:27:29;5.43;;;2.70;;
39400;SDS011;54391;50.000;7.360;2023-12-14T11:29:57;5.80;;;2.30;;
39400;SDS011;54391;50.000;7.360;2023-12-14T11:32:25;5.38;;;2.50;;
39400;SDS011;54391;50.000;7.360;2023-12-14T11:34:52;4.53;;;2.35;;
39400;SDS011;54391;50.000;7.360;2023-12-14T11:37:20;4.55;;;2.33;;
39400;SDS011;54391;50.000;7.360;2023-12-14T11:40:05;5.18;;;2.35;;
39400;SDS011;54391;50.000;7.360;2023-12-14T11:42:35;3.08;;;1.85;;
39400;SDS011;54391;50.000;7.360;2023-12-14T11:45:02;4.38;;;2.28;;
39400;SDS011;54391;50.000;7.360;2023-12-14T11:50:59;5.10;;;2.80;;
39400;SDS011;54391;50.000;7.360;2023-12-14T11:53:27;5.55;;;2.75;;
39400;SDS011;54391;50.000;7.360;2023-12-14T11:55:56;4.00;;;2.13;;
39400;SDS011;54391;50.000;7.360;2023-12-14T11:58:24;5.25;;;2.33;;
39400;SDS011;54391;50.000;7.360;2023-12-14T12:00:51;6.05;;;2.88;;
39400;SDS011;54391;50.000;7.360;2023-12-14T12:03:20;3.92;;;2.10;;
39400;SDS011;54391;50.000;7.360;2023-12-14T12:05:48;3.97;;;2.38;;
39400;SDS011;54391;50.000;7.360;2023-12-14T12:08:17;4.75;;;2.10;;
39400;SDS011;54391;50.000;7.360;2023-12-14T12:10:45;3.63;;;2.10;;
39400;SDS011;54391;50.000;7.360;2023-12-14T12:13:15;5.22;;;2.60;;
39400;SDS011;54391;50.000;7.360;2023-12-14T12:15:43;6.60;;;3.10;;
39400;SDS011;54391;50.000;7.360;2023-12-14T12:18:11;6.47;;;2.65;;
39400;SDS011;54391;50.000;7.360;2023-12-14T12:20:39;4.22;;;1.70;;
39400;SDS011;54391;50.000;7.360;2023-12-14T12:23:06;4.25;;;2.00;;
39400;SDS011;54391;50.000;7.360;2023-12-14T12:25:35;3.65;;;2.17;;
39400;SDS011;54391;50.000;7.360;2023-12-14T12:28:03;3.17;;;1.67;;
39400;SDS011;54391;50.000;7.360;2023-12-14T12:30:32;5.28;;;2.08;;
39400;SDS011;54391;50.000;7.360;2023-12-14T12:32:59;4.00;;;1.75;;
39400;SDS011;54391;50.000;7.360;2023-12-14T12:35:27;3.38;;;1.40;;
39400;SDS011;54391;50.000;7.360;2023-12-14T12:37:56;3.08;;;1.40;;
39400;SDS011;54391;50.000;7.360;2023-12-14T12:40:23;2.40;;;1.00;;
39400;SDS011;54391;50.000;7.360;2023-12-14T12:42:52;2.15;;;1.17;;
39400;SDS011;54391;50.000;7.360;2023-12-14T12:45:19;2.38;;;1.35;;
39400;SDS011;54391;50.000;7.360;2023-12-14T12:47:51;2.10;;;1.10;;
39400;SDS011;54391;50.000;7.360;2023-12-14T12:50:19;1.95;;;0.90;;
39400;SDS011;54391;50.000;7.360;2023-12-14T12:52:46;1.40;;;0.80;;
39400;SDS011;54391;50.000;7.360;2023-12-14T12:55:14;2.03;;;0.80;;
39400;SDS011;54391;50.000;7.360;2023-12-14T12:57:42;1.60;;;1.17;;
39400;SDS011;54391;50.000;7.360;2023-12-14T13:00:10;3.75;;;0.93;;
39400;SDS011;54391;50.000;7.360;2023-12-14T13:02:38;2.45;;;1.25;;
39400;SDS011;54391;50.000;7.360;2023-12-14T13:08:36;1.70;;;0.98;;
39400;SDS011;54391;50.000;7.360;2023-12-14T13:11:03;1.25;;;0.73;;
39400;SDS011;54391;50.000;7.360;2023-12-14T13:13:31;1.40;;;0.52;;
39400;SDS011;54391;50.000;7.360;2023-12-14T13:15:58;1.35;;;0.70;;
39400;SDS011;54391;50.000;7.360;2023-12-14T13:18:38;1.80;;;0.93;;
39400;SDS011;54391;50.000;7.360;2023-12-14T13:21:05;1.17;;;0.70;;
39400;SDS011;54391;50.000;7.360;2023-12-14T13:23:33;1.75;;;0.90;;
39400;SDS011;54391;50.000;7.360;2023-12-14T13:26:02;2.05;;;0.88;;
39400;SDS011;54391;50.000;7.360;2023-12-14T13:28:30;1.83;;;0.88;;
39400;SDS011;54391;50.000;7.360;2023-12-14T13:30:57;2.88;;;1.23;;
39400;SDS011;54391;50.000;7.360;2023-12-14T13:33:25;1.70;;;0.85;;
39400;SDS011;54391;50.000;7.360;2023-12-14T13:35:52;2.60;;;1.23;;
39400;SDS011;54391;50.000;7.360;2023-12-14T13:38:20;2.08;;;0.98;;
39400;SDS011;54391;50.000;7.360;2023-12-14T13:40:47;1.63;;;1.00;;
39400;SDS011;54391;50.000;7.360;2023-12-14T13:43:17;1.50;;;1.00;;
39400;SDS011;54391;50.000;7.360;2023-12-14T13:45:44;1.60;;;0.82;;
39400;SDS011;54391;50.000;7.360;2023-12-14T13:48:13;2.95;;;1.05;;
39400;SDS011;54391;50.000;7.360;2023-12-14T13:50:40;2.65;;;1.45;;
39400;SDS011;54391;50.000;7.360;2023-12-14T13:53:08;2.25;;;1.02;;
39400;SDS011;54391;50.000;7.360;2023-12-14T13:55:35;2.72;;;1.20;;
39400;SDS011;54391;50.000;7.360;2023-12-14T13:58:02;2.53;;;1.45;;
39400;SDS011;54391;50.000;7.360;2023-12-14T14:00:31;1.80;;;0.60;;
39400;SDS011;54391;50.000;7.360;2023-12-14T14:02:59;1.75;;;0.75;;
39400;SDS011;54391;50.000;7.360;2023-12-14T14:05:28;1.52;;;0.80;;
39400;SDS011;54391;50.000;7.360;2023-12-14T14:07:56;1.27;;;0.50;;
39400;SDS011;54391;50.000;7.360;2023-12-14T14:10:24;1.38;;;0.50;;
39400;SDS011;54391;50.000;7.360;2023-12-14T14:12:51;0.50;;;0.30;;
39400;SDS011;54391;50.000;7.360;2023-12-14T14:15:19;2.10;;;0.60;;
39400;SDS011;54391;50.000;7.360;2023-12-14T14:17:48;2.15;;;0.38;;
39400;SDS011;54391;50.000;7.360;2023-12-14T14:20:17;1.27;;;0.40;;
39400;SDS011;54391;50.000;7.360;2023-12-14T14:22:45;1.25;;;0.70;;
39400;SDS011;54391;50.000;7.360;2023-12-14T14:25:12;1.20;;;0.50;;
39400;SDS011;54391;50.000;7.360;2023-12-14T14:27:40;2.15;;;1.02;;
39400;SDS011;54391;50.000;7.360;2023-12-14T14:30:07;1.67;;;0.70;;
39400;SDS011;54391;50.000;7.360;2023-12-14T14:32:35;1.52;;;0.55;;
39400;SDS011;54391;50.000;7.360;2023-12-14T14:35:05;1.63;;;0.90;;
39400;SDS011;54391;50.000;7.360;2023-12-14T14:37:32;2.55;;;1.08;;
39400;SDS011;54391;50.000;7.360;2023-12-14T14:40:00;1.55;;;0.88;;
39400;SDS011;54391;50.000;7.360;2023-12-14T14:42:28;0.90;;;0.60;;
39400;SDS011;54391;50.000;7.360;2023-12-14T14:44:55;1.40;;;0.70;;
39400;SDS011;54391;50.000;7.360;2023-12-14T14:47:23;2.15;;;0.93;;
39400;SDS011;54391;50.000;7.360;2023-12-14T14:49:51;1.35;;;0.70;;
39400;SDS011;54391;50.000;7.360;2023-12-14T14:52:23;1.70;;;0.70;;
39400;SDS011;54391;50.000;7.360;2023-12-14T14:54:50;1.23;;;0.65;;
39400;SDS011;54391;50.000;7.360;2023-12-14T14:57:18;0.75;;;0.50;;
39400;SDS011;54391;50.000;7.360;2023-12-14T14:59:46;0.80;;;0.60;;
39400;SDS011;54391;50.000;7.360;2023-12-14T15:02:13;1.50;;;0.80;;
39400;SDS011;54391;50.000;7.360;2023-12-14T15:04:41;1.20;;;0.90;;
39400;SDS011;54391;50.000;7.360;2023-12-14T15:07:08;1.48;;;0.90;;
39400;SDS011;54391;50.000;7.360;2023-12-14T15:09:37;1.23;;;0.50;;
39400;SDS011;54391;50.000;7.360;2023-12-14T15:12:05;0.98;;;0.50;;
39400;SDS011;54391;50.000;7.360;2023-12-14T15:20:07;0.70;;;0.40;;
39400;SDS011;54391;50.000;7.360;2023-12-14T15:22:35;0.70;;;0.50;;
39400;SDS011;54391;50.000;7.360;2023-12-14T15:25:19;1.20;;;0.55;;
39400;SDS011;54391;50.000;7.360;2023-12-14T15:27:47;0.63;;;0.40;;
39400;SDS011;54391;50.000;7.360;2023-12-14T15:30:14;0.90;;;0.50;;
39400;SDS011;54391;50.000;7.360;2023-12-14T15:32:42;1.80;;;0.75;;